Main page
METAR-TAF:

METAR-TAF

Airports :

Tehran, Iran

Mehrabad International Airport

latitude: 35-41N, longitude: 051-21E, elevation: 1204 m

Current weather observation

The report was made 35 minutes ago, at 13:30 UTC
Wind 4 kt from the South
Temperature 22°C
Humidity 11%
Pressure 1016 hPa
Visibility 10 km or more
no clouds below 1500 m and no cumulonimbus

METAR: OIII 211330Z 18004KT CAVOK 22/M10 Q1015 A3000 NOSIG

Time: 17:35 (14:05 UTC)

Forecast

The report was made 3 hours and 5 minutes ago, at 11:00 UTC
Forecast valid from 21 at 12 UTC to 22 at 18 UTC
Wind 8 kt from the Southwest
Visibility 10 km or more
no clouds below 1500 m and no cumulonimbus

TAF: OIII 211100Z 2112/2218 22004MPS CAVOK

Weather observations and forecasts of more than 4000 airports (METAR and TAF reports).

The available stations are represented by yellow and red dots on the map.

Hover mouse over dot to see the name of the station.

Then click to see weather observations and forecasts.

To change the map : click on the green buttons with a black cross to zoom in, on the green button with a dash to zoom out, or on the green arrows for adjacent maps.


METAR-TAF: